createdAt,value
2018-03-04T00:00:58.929Z,113.10
2018-03-04T00:03:26.456Z,107.60
2018-03-04T00:05:54.018Z,100.33
2018-03-04T00:08:21.553Z,99.53
2018-03-04T00:10:49.883Z,95.93
2018-03-04T00:13:17.443Z,108.40
2018-03-04T00:15:44.972Z,96.83
2018-03-04T00:18:12.488Z,109.63
2018-03-04T00:20:40.039Z,100.20
2018-03-04T00:23:07.547Z,121.77
2018-03-04T00:25:35.094Z,116.50
2018-03-04T00:28:04.182Z,103.87
2018-03-04T00:30:32.533Z,108.20
2018-03-04T00:33:00.056Z,118.77
2018-03-04T00:35:27.620Z,112.80
2018-03-04T00:37:55.136Z,97.10
2018-03-04T00:40:23.414Z,106.57
2018-03-04T00:42:52.094Z,99.87
2018-03-04T00:45:20.375Z,97.90
2018-03-04T00:47:48.703Z,92.67
2018-03-04T00:50:16.236Z,100.60
2018-03-04T00:52:43.771Z,99.03
2018-03-04T00:55:12.058Z,107.00
2018-03-04T00:57:40.381Z,106.37
2018-03-04T01:00:07.896Z,85.87
2018-03-04T01:02:36.208Z,94.40
2018-03-04T01:05:03.716Z,90.13
2018-03-04T01:07:32.006Z,99.60
2018-03-04T01:10:00.331Z,95.87
2018-03-04T01:12:27.843Z,99.47
2018-03-04T01:14:56.119Z,82.90
2018-03-04T01:17:24.426Z,97.17
2018-03-04T01:19:51.978Z,94.27
2018-03-04T01:22:19.491Z,94.87
2018-03-04T01:24:47.002Z,87.70
2018-03-04T01:27:14.533Z,94.97
2018-03-04T01:29:42.818Z,97.00
2018-03-04T01:32:10.364Z,89.53
2018-03-04T01:34:38.674Z,93.63
2018-03-04T01:37:06.186Z,87.40
2018-03-04T01:39:33.733Z,89.07
2018-03-04T01:42:01.252Z,96.60
2018-03-04T01:44:28.784Z,85.33
2018-03-04T01:46:57.076Z,89.10
2018-03-04T01:49:24.590Z,79.97
2018-03-04T01:51:53.080Z,74.47
2018-03-04T01:54:20.591Z,96.40
2018-03-04T01:56:48.115Z,81.87
2018-03-04T01:59:16.394Z,75.73
2018-03-04T02:01:44.695Z,72.43
2018-03-04T02:04:12.206Z,76.07
2018-03-04T02:06:39.727Z,81.10
2018-03-04T02:09:07.236Z,88.97
2018-03-04T02:11:35.572Z,76.37
2018-03-04T02:14:03.086Z,80.30
2018-03-04T02:16:31.359Z,90.50
2018-03-04T02:18:59.682Z,85.87
2018-03-04T02:21:27.195Z,86.87
2018-03-04T02:23:55.488Z,90.73
2018-03-04T02:26:23.002Z,89.90
2018-03-04T02:28:50.531Z,87.90
2018-03-04T02:31:18.040Z,70.77
2018-03-04T02:33:46.322Z,77.90
2018-03-04T02:36:14.598Z,83.93
2018-03-04T02:38:42.901Z,85.73
2018-03-04T02:41:10.427Z,78.00
2018-03-04T02:43:38.723Z,80.50
2018-03-04T02:46:07.034Z,79.67
2018-03-04T02:48:34.546Z,85.33
2018-03-04T02:51:02.082Z,88.00
2018-03-04T02:53:29.600Z,79.20
2018-03-04T02:55:57.135Z,83.83
2018-03-04T02:58:25.417Z,81.30
2018-03-04T03:00:52.938Z,79.07
2018-03-04T03:03:20.448Z,82.97
2018-03-04T03:05:48.003Z,89.03
2018-03-04T03:08:15.521Z,78.37
2018-03-04T03:10:43.031Z,85.50
2018-03-04T03:13:10.561Z,78.70
2018-03-04T03:15:38.841Z,70.50
2018-03-04T03:18:07.126Z,73.23
2018-03-04T03:20:35.576Z,71.77
2018-03-04T03:23:03.135Z,70.53
2018-03-04T03:25:30.654Z,73.23
2018-03-04T03:27:58.183Z,64.63
2018-03-04T03:30:25.693Z,74.13
2018-03-04T03:32:53.232Z,63.90
2018-03-04T03:35:20.757Z,65.20
2018-03-04T03:37:49.043Z,67.43
2018-03-04T03:40:16.581Z,69.93
2018-03-04T03:42:44.865Z,59.67
2018-03-04T03:45:13.159Z,67.73
2018-03-04T03:47:40.716Z,56.50
2018-03-04T03:50:08.245Z,58.93
2018-03-04T03:52:36.542Z,51.53
2018-03-04T03:55:04.829Z,57.93
2018-03-04T03:57:32.335Z,56.90
2018-03-04T04:00:00.168Z,70.27
2018-03-04T04:02:27.668Z,64.63
2018-03-04T04:04:55.186Z,62.40
2018-03-04T04:07:23.055Z,82.53
2018-03-04T04:09:50.573Z,51.17
2018-03-04T04:12:18.858Z,51.60
2018-03-04T04:14:47.135Z,46.53
2018-03-04T04:17:15.439Z,42.20
2018-03-04T04:19:42.979Z,41.57
2018-03-04T04:22:11.280Z,37.97
2018-03-04T04:24:38.807Z,47.70
2018-03-04T04:27:07.098Z,42.93
2018-03-04T04:29:34.608Z,44.17
2018-03-04T04:32:02.135Z,48.20
2018-03-04T04:34:29.658Z,42.50
2018-03-04T04:36:57.937Z,38.73
2018-03-04T04:39:26.224Z,37.10
2018-03-04T04:41:54.496Z,40.30
2018-03-04T04:44:22.859Z,36.83
2018-03-04T04:46:50.348Z,40.53
2018-03-04T04:49:17.884Z,40.90
2018-03-04T04:51:46.152Z,29.03
2018-03-04T04:54:13.697Z,32.83
2018-03-04T04:56:41.202Z,28.00
2018-03-04T04:59:08.716Z,28.03
2018-03-04T05:01:36.249Z,27.57
2018-03-04T05:04:03.763Z,27.33
2018-03-04T05:06:32.046Z,32.60
2018-03-04T05:09:00.317Z,29.97
2018-03-04T05:11:28.607Z,24.03
2018-03-04T05:13:56.125Z,35.50
2018-03-04T05:16:23.667Z,26.43
2018-03-04T05:18:51.176Z,26.40
2018-03-04T05:21:19.459Z,29.43
2018-03-04T05:23:46.986Z,27.60
2018-03-04T05:26:14.491Z,26.50
2018-03-04T05:28:42.015Z,24.70
2018-03-04T05:31:10.287Z,30.23
2018-03-04T05:33:38.586Z,30.00
2018-03-04T05:36:06.097Z,26.77
2018-03-04T05:38:33.632Z,25.93
2018-03-04T05:41:01.147Z,29.60
2018-03-04T05:43:29.423Z,27.27
2018-03-04T05:45:57.707Z,27.43
2018-03-04T05:48:25.994Z,25.60
2018-03-04T05:50:53.516Z,19.77
2018-03-04T05:53:21.031Z,22.53
2018-03-04T05:55:48.556Z,25.63
2018-03-04T05:58:16.841Z,29.80
2018-03-04T06:00:45.128Z,23.40
2018-03-04T06:03:12.638Z,22.77
2018-03-04T06:05:41.266Z,24.23
2018-03-04T06:08:08.820Z,19.70
2018-03-04T06:10:37.095Z,21.93
2018-03-04T06:13:05.382Z,23.83
2018-03-04T06:15:32.903Z,23.43
2018-03-04T06:18:00.426Z,26.03
2018-03-04T06:20:27.932Z,21.10
2018-03-04T06:22:55.495Z,28.67
2018-03-04T06:25:23.772Z,21.00
2018-03-04T06:27:52.075Z,26.00
2018-03-04T06:30:19.595Z,27.40
2018-03-04T06:32:47.404Z,22.97
2018-03-04T06:35:14.915Z,24.80
2018-03-04T06:37:42.466Z,23.97
2018-03-04T06:40:10.003Z,23.97
2018-03-04T06:42:37.498Z,20.37
2018-03-04T06:45:05.029Z,19.43
2018-03-04T06:47:32.534Z,17.57
2018-03-04T06:50:00.862Z,25.40
2018-03-04T06:52:28.352Z,29.33
2018-03-04T06:54:55.881Z,23.40
2018-03-04T06:57:23.391Z,19.53
2018-03-04T06:59:51.688Z,26.80
2018-03-04T07:02:19.197Z,30.87
2018-03-04T07:04:46.727Z,22.50
2018-03-04T07:07:14.258Z,18.17
2018-03-04T07:09:41.767Z,18.83
2018-03-04T07:12:09.293Z,23.43
2018-03-04T07:14:36.810Z,27.80
2018-03-04T07:17:05.138Z,16.87
2018-03-04T07:19:32.647Z,22.10
2018-03-04T07:22:00.173Z,16.73
2018-03-04T07:24:27.674Z,19.97
2018-03-04T07:26:55.206Z,19.67
2018-03-04T07:29:22.726Z,11.80
2018-03-04T07:31:50.243Z,17.73
2018-03-04T07:34:18.532Z,12.30
2018-03-04T07:36:46.067Z,17.20
2018-03-04T07:39:13.584Z,16.47
2018-03-04T07:41:41.095Z,16.97
2018-03-04T07:44:09.390Z,16.00
2018-03-04T07:46:38.102Z,11.87
2018-03-04T07:49:05.623Z,16.17
2018-03-04T07:51:33.906Z,11.77
2018-03-04T07:54:02.200Z,11.23
2018-03-04T07:56:30.644Z,14.20
2018-03-04T07:58:58.148Z,14.33
2018-03-04T08:01:25.680Z,13.30
2018-03-04T08:03:53.978Z,9.90
2018-03-04T08:06:21.503Z,11.00
2018-03-04T08:08:49.154Z,13.43
2018-03-04T08:11:16.669Z,16.47
2018-03-04T08:13:44.171Z,16.30
2018-03-04T08:16:11.713Z,13.67
2018-03-04T08:18:39.217Z,10.30
2018-03-04T08:21:07.507Z,7.97
2018-03-04T08:23:35.018Z,12.60
2018-03-04T08:26:14.385Z,14.10
2018-03-04T08:28:42.709Z,8.53
2018-03-04T08:31:10.214Z,7.00
2018-03-04T08:33:38.499Z,9.33
2018-03-04T08:36:06.795Z,10.10
2018-03-04T08:38:34.294Z,9.20
2018-03-04T08:41:01.814Z,10.50
2018-03-04T08:43:29.315Z,8.50
2018-03-04T08:45:56.844Z,6.00
2018-03-04T08:48:24.347Z,13.90
2018-03-04T08:50:51.872Z,7.57
2018-03-04T08:53:19.387Z,10.60
2018-03-04T08:55:47.688Z,11.83
2018-03-04T08:58:15.199Z,12.93
2018-03-04T09:00:42.836Z,14.90
2018-03-04T09:03:11.492Z,9.43
2018-03-04T09:05:39.015Z,6.83
2018-03-04T09:08:07.301Z,7.90
2018-03-04T09:10:35.570Z,6.80
2018-03-04T09:13:03.156Z,17.93
2018-03-04T09:15:30.671Z,10.83
2018-03-04T09:17:58.200Z,7.73
2018-03-04T09:20:25.857Z,7.10
2018-03-04T09:22:53.519Z,7.60
2018-03-04T09:25:21.066Z,7.40
2018-03-04T09:27:48.587Z,5.73
2018-03-04T09:30:16.084Z,12.97
2018-03-04T09:32:43.608Z,4.50
2018-03-04T09:35:11.116Z,12.43
2018-03-04T09:37:38.662Z,5.80
2018-03-04T09:40:06.178Z,6.90
2018-03-04T09:42:33.738Z,6.00
2018-03-04T09:45:01.355Z,8.20
2018-03-04T09:47:28.882Z,8.43
2018-03-04T09:49:56.493Z,9.50
2018-03-04T09:52:24.053Z,12.47
2018-03-04T09:54:51.563Z,5.90
2018-03-04T09:57:19.868Z,5.50
2018-03-04T09:59:47.399Z,6.53
2018-03-04T10:02:15.773Z,9.40
2018-03-04T10:04:44.071Z,6.13
2018-03-04T10:07:11.660Z,11.73
2018-03-04T10:09:39.186Z,12.30
2018-03-04T10:12:06.728Z,9.77
2018-03-04T10:14:35.047Z,15.23
2018-03-04T10:17:02.661Z,11.27
2018-03-04T10:19:30.980Z,8.23
2018-03-04T10:21:58.582Z,7.27
2018-03-04T10:24:26.948Z,15.30
2018-03-04T10:26:54.501Z,31.87
2018-03-04T10:29:22.007Z,17.43
2018-03-04T10:31:50.312Z,16.03
2018-03-04T10:34:18.035Z,12.53
2018-03-04T10:36:46.349Z,13.07
2018-03-04T10:39:13.886Z,16.23
2018-03-04T10:41:42.154Z,17.00
2018-03-04T10:44:11.281Z,14.50
2018-03-04T10:46:38.837Z,22.37
2018-03-04T10:49:06.442Z,17.50
2018-03-04T10:51:33.957Z,18.30
2018-03-04T10:54:01.470Z,19.70
2018-03-04T10:56:29.025Z,15.60
2018-03-04T10:58:56.535Z,27.50
2018-03-04T11:01:29.018Z,23.83
2018-03-04T11:03:56.594Z,20.53
2018-03-04T11:06:24.511Z,21.57
2018-03-04T11:08:52.819Z,25.07
2018-03-04T11:11:20.355Z,25.57
2018-03-04T11:13:48.671Z,22.57
2018-03-04T11:16:16.180Z,26.83
2018-03-04T11:18:44.461Z,23.87
2018-03-04T11:21:12.762Z,28.30
2018-03-04T11:23:40.308Z,29.17
2018-03-04T11:26:08.611Z,28.67
2018-03-04T11:28:36.194Z,31.03
2018-03-04T11:31:04.452Z,28.37
2018-03-04T11:33:31.998Z,33.90
2018-03-04T11:35:59.512Z,34.23
2018-03-04T11:38:27.020Z,36.47
2018-03-04T11:41:00.330Z,30.83
2018-03-04T11:43:27.877Z,26.90
2018-03-04T11:45:55.387Z,30.83
2018-03-04T11:48:22.928Z,32.37
2018-03-04T11:50:50.472Z,25.93
2018-03-04T11:53:17.998Z,28.60
2018-03-04T11:55:45.536Z,28.10
2018-03-04T11:58:13.819Z,25.33
2018-03-04T12:00:42.132Z,36.67
2018-03-04T12:03:09.654Z,39.03
2018-03-04T12:05:37.965Z,22.17
2018-03-04T12:08:05.477Z,23.40
2018-03-04T12:10:32.997Z,25.33
2018-03-04T12:13:00.555Z,22.53
2018-03-04T12:15:28.065Z,27.30
2018-03-04T12:17:56.347Z,22.50
2018-03-04T12:20:24.643Z,17.53
2018-03-04T12:22:52.193Z,20.17
2018-03-04T12:25:19.729Z,18.57
2018-03-04T12:27:47.268Z,18.87
2018-03-04T12:30:14.776Z,14.73
2018-03-04T12:32:42.328Z,9.60
2018-03-04T12:35:10.865Z,8.03
2018-03-04T12:37:38.402Z,4.67
2018-03-04T12:40:05.940Z,3.67
2018-03-04T12:42:33.455Z,2.03
2018-03-04T12:45:00.966Z,3.87
2018-03-04T12:47:28.506Z,3.53
2018-03-04T12:49:56.086Z,6.70
2018-03-04T12:52:23.645Z,7.27
2018-03-04T12:54:51.179Z,7.50
2018-03-04T12:57:21.181Z,6.93
2018-03-04T12:59:48.675Z,3.07
2018-03-04T13:02:16.198Z,3.60
2018-03-04T13:04:43.740Z,3.60
2018-03-04T13:07:13.262Z,4.23
2018-03-04T13:09:40.794Z,4.00
2018-03-04T13:12:08.356Z,7.43
2018-03-04T13:14:36.679Z,4.47
2018-03-04T13:17:04.973Z,5.13
2018-03-04T13:19:32.475Z,6.60
2018-03-04T13:22:00.011Z,4.33
2018-03-04T13:24:27.535Z,5.70
2018-03-04T13:26:55.804Z,6.33
2018-03-04T13:29:24.117Z,5.17
2018-03-04T13:31:51.892Z,8.33
2018-03-04T13:34:19.405Z,4.53
2018-03-04T13:36:47.710Z,6.87
2018-03-04T13:39:15.218Z,5.80
2018-03-04T13:41:42.744Z,4.63
2018-03-04T13:44:10.293Z,8.40
2018-03-04T13:46:37.804Z,5.73
2018-03-04T13:49:05.307Z,3.90
2018-03-04T13:51:32.844Z,4.00
2018-03-04T13:54:01.119Z,5.63
2018-03-04T13:56:29.424Z,5.20
2018-03-04T13:58:56.936Z,8.23
2018-03-04T14:01:24.464Z,7.60
2018-03-04T14:03:51.973Z,9.80
2018-03-04T14:06:20.277Z,12.73
2018-03-04T14:08:47.816Z,6.03
2018-03-04T14:11:16.084Z,5.70
2018-03-04T14:13:44.366Z,14.27
2018-03-04T14:16:12.663Z,5.43
2018-03-04T14:18:40.166Z,2.83
2018-03-04T14:21:07.704Z,6.03
2018-03-04T14:23:35.202Z,6.53
2018-03-04T14:26:03.493Z,10.80
2018-03-04T14:28:31.788Z,5.10
2018-03-04T14:30:59.323Z,5.43
2018-03-04T14:33:27.618Z,10.43
2018-03-04T14:35:55.155Z,6.87
2018-03-04T14:38:23.424Z,33.67
2018-03-04T14:40:50.979Z,31.93
2018-03-04T14:43:18.487Z,35.10
2018-03-04T14:45:45.994Z,32.97
2018-03-04T14:48:13.555Z,32.30
2018-03-04T14:50:41.373Z,41.93
2018-03-04T14:53:08.943Z,45.67
2018-03-04T14:55:36.518Z,40.40
2018-03-04T14:58:04.063Z,32.73
2018-03-04T15:00:31.641Z,45.50
2018-03-04T15:02:59.188Z,42.37
2018-03-04T15:05:26.760Z,37.67
2018-03-04T15:07:54.317Z,34.53
2018-03-04T15:10:21.873Z,37.60
2018-03-04T15:12:49.440Z,37.43
2018-03-04T15:15:18.164Z,33.30
2018-03-04T15:17:46.503Z,31.30
2018-03-04T15:20:14.041Z,31.10
2018-03-04T15:22:41.605Z,32.17
2018-03-04T15:25:09.145Z,38.67
2018-03-04T15:27:36.719Z,36.40
2018-03-04T15:30:04.265Z,28.07
2018-03-04T15:32:31.826Z,28.40
2018-03-04T15:35:00.233Z,29.60
2018-03-04T15:37:27.773Z,13.20
2018-03-04T15:39:55.341Z,10.53
2018-03-04T15:42:22.883Z,6.30
2018-03-04T15:44:50.441Z,6.00
2018-03-04T15:47:17.985Z,6.67
2018-03-04T15:49:46.323Z,16.70
2018-03-04T15:52:13.859Z,4.10
2018-03-04T15:54:41.417Z,4.90
2018-03-04T15:57:08.979Z,4.80
2018-03-04T15:59:36.526Z,8.30
2018-03-04T16:02:04.079Z,7.50
2018-03-04T16:04:31.753Z,7.67
2018-03-04T16:06:59.324Z,9.93
2018-03-04T16:09:26.872Z,15.10
2018-03-04T16:11:54.403Z,7.67
2018-03-04T16:14:22.718Z,5.63
2018-03-04T16:16:50.247Z,6.30
2018-03-04T16:19:17.808Z,10.60
2018-03-04T16:21:45.430Z,11.10
2018-03-04T16:24:13.040Z,9.17
2018-03-04T16:26:40.576Z,15.60
2018-03-04T16:29:08.875Z,7.67
2018-03-04T16:31:36.452Z,9.17
2018-03-04T16:34:03.983Z,7.73
2018-03-04T16:36:31.532Z,6.77
2018-03-04T16:38:59.829Z,9.20
2018-03-04T16:41:27.391Z,14.27
2018-03-04T16:43:54.935Z,11.43
2018-03-04T16:46:23.295Z,9.50
2018-03-04T16:48:50.847Z,7.10
2018-03-04T16:51:18.383Z,9.57
2018-03-04T16:53:45.937Z,10.93
2018-03-04T16:56:13.484Z,10.17
2018-03-04T16:58:41.054Z,10.70
2018-03-04T17:01:08.597Z,11.80
2018-03-04T17:03:36.137Z,11.20
2018-03-04T17:06:03.702Z,11.67
2018-03-04T17:08:31.266Z,11.50
2018-03-04T17:10:58.820Z,12.73
2018-03-04T17:13:26.358Z,11.47
2018-03-04T17:15:54.699Z,12.73
2018-03-04T17:18:22.337Z,13.93
2018-03-04T17:20:49.875Z,10.70
2018-03-04T17:23:17.441Z,13.90
2018-03-04T17:25:45.041Z,14.93
2018-03-04T17:28:12.591Z,8.93
2018-03-04T17:30:40.133Z,9.03
2018-03-04T17:33:07.701Z,10.93
2018-03-04T17:35:35.281Z,10.83
